»·PEaware :: N64TZ KMFR-KOTH

N64TZ :: KMFR-KOTH

FLIGHT INFORMATION

Flight Status: Arrived
Operator: Privately registered:
United States
More flights under this callsign
Pilot: David H. (11212)
Aircraft: CESSNA 172 SKYHAWK
(C172)
More flights by this aircraft type
Origin: KMFR Rogue Valley Intl-Medford
United States
Destination: KOTH North Bend Mun
United States
More flights between these airports :: More routes between these airports
Route: +GNATS7 KOLER V287 OTH
File this flight plan on PilotEdge
Remarks:
Altitude:
(Current/Filed)
8,000ft
Speed:
(Current/Filed)
120kts
Departed: 14-Jul-18 12:30 PM
Arrived: 14-Jul-18 01:33 PM
Distance/Time
Traveled:
87nm/1:03
Distance/Time
To Go:
Arrived

Flight Plot

Page will automatically refresh every two minutes.

Flight plan parsing failed; only flown route is shown


Map Options




Map Legend


Flown Route
Filed Route
Departure Airport
Arrival Airport
Navaid (VOR, NDB)
Fix

Horizontal Profiles

Position Reports

Time Latitude Longitude Heading Altitude Ground
Speed
14-Jul-18 12:10 42.367962 -122.872779 190 1337ft 0kts
14-Jul-18 12:11 42.367967 -122.872824 6 1337ft 0kts
14-Jul-18 12:12 42.367967 -122.872824 6 1337ft 0kts
14-Jul-18 12:13 42.367967 -122.872824 6 1337ft 0kts
14-Jul-18 12:14 42.367967 -122.872824 6 1337ft 0kts
14-Jul-18 12:15 42.367967 -122.872824 6 1337ft 0kts
14-Jul-18 12:16 42.367967 -122.872824 6 1337ft 0kts
14-Jul-18 12:17 42.367967 -122.872824 6 1337ft 0kts
14-Jul-18 12:18 42.367967 -122.872824 6 1337ft 0kts
14-Jul-18 12:19 42.367967 -122.872824 6 1337ft 0kts
14-Jul-18 12:20 42.367967 -122.872824 6 1337ft 0kts
14-Jul-18 12:21 42.367967 -122.872824 6 1337ft 0kts
14-Jul-18 12:22 42.367967 -122.872824 6 1337ft 0kts
14-Jul-18 12:23 42.367967 -122.872824 6 1337ft 0kts
14-Jul-18 12:24 42.368340 -122.872716 15 1337ft 7kts
14-Jul-18 12:25 42.370435 -122.872476 337 1337ft 11kts
14-Jul-18 12:26 42.374392 -122.874577 339 1337ft 16kts
14-Jul-18 12:27 42.378715 -122.876852 338 1337ft 16kts
14-Jul-18 12:28 42.383072 -122.879132 336 1337ft 17kts
14-Jul-18 12:29 42.385671 -122.880331 39 1337ft 0kts
14-Jul-18 12:30 42.385723 -122.878891 159 1337ft 19kts
14-Jul-18 12:31 42.367609 -122.869570 160 1800ft 74kts
14-Jul-18 12:32 42.354672 -122.882894 282 2411ft 85kts
14-Jul-18 12:33 42.373563 -122.890581 3 3162ft 70kts
14-Jul-18 12:34 42.390691 -122.901782 299 3754ft 82kts
14-Jul-18 12:35 42.398840 -122.930044 293 4406ft 77kts
14-Jul-18 12:36 42.406920 -122.956345 293 4993ft 76kts
14-Jul-18 12:37 42.415143 -122.984184 291 5499ft 82kts
14-Jul-18 12:38 42.423107 -123.013476 291 6000ft 83kts
14-Jul-18 12:39 42.432003 -123.042142 291 6498ft 82kts
14-Jul-18 12:40 42.437499 -123.071243 281 6995ft 78kts
14-Jul-18 12:41 42.452000 -123.090501 326 7478ft 78kts
14-Jul-18 12:42 42.471680 -123.104054 326 7885ft 82kts
14-Jul-18 12:43 42.496172 -123.119879 331 7974ft 114kts
14-Jul-18 12:44 42.526586 -123.138848 330 7972ft 124kts
14-Jul-18 12:45 42.557679 -123.158759 330 8013ft 123kts
14-Jul-18 12:46 42.587873 -123.178211 330 8155ft 123kts
14-Jul-18 12:47 42.619356 -123.198427 330 8155ft 127kts
14-Jul-18 12:48 42.651321 -123.218984 330 8155ft 127kts
14-Jul-18 12:49 42.684587 -123.240413 330 7999ft 130kts
14-Jul-18 12:50 42.715875 -123.260600 330 7999ft 129kts
14-Jul-18 12:51 42.748127 -123.281429 330 7999ft 128kts
14-Jul-18 12:52 42.777565 -123.306991 312 7999ft 125kts
14-Jul-18 12:53 42.802404 -123.340406 312 7999ft 125kts
14-Jul-18 12:54 42.827285 -123.373631 313 7999ft 125kts
14-Jul-18 12:55 42.852038 -123.406666 313 7999ft 125kts
14-Jul-18 12:56 42.876957 -123.439981 313 7999ft 125kts
14-Jul-18 12:57 42.901827 -123.473250 313 7999ft 125kts
14-Jul-18 12:58 42.926665 -123.506503 313 7999ft 125kts
14-Jul-18 12:59 42.951218 -123.539429 313 7999ft 125kts
14-Jul-18 13:00 42.976644 -123.573580 313 7852ft 127kts
14-Jul-18 13:01 43.001610 -123.607126 313 7825ft 125kts
14-Jul-18 13:02 43.025743 -123.639628 312 7826ft 127kts
14-Jul-18 13:03 43.050723 -123.673248 311 7826ft 126kts
14-Jul-18 13:04 43.075590 -123.706735 311 7826ft 125kts
14-Jul-18 13:05 43.100277 -123.739819 311 7826ft 125kts
14-Jul-18 13:06 43.124622 -123.772691 312 7826ft 125kts
14-Jul-18 13:07 43.149383 -123.806208 312 7826ft 125kts
14-Jul-18 13:08 43.174101 -123.839709 312 7826ft 125kts
14-Jul-18 13:09 43.200161 -123.874834 314 7179ft 130kts
14-Jul-18 13:10 43.225193 -123.908778 314 6486ft 125kts
14-Jul-18 13:11 43.247732 -123.939447 315 5899ft 120kts
14-Jul-18 13:12 43.268847 -123.968223 315 5881ft 101kts
14-Jul-18 13:13 43.288376 -123.994894 315 5881ft 98kts
14-Jul-18 13:14 43.308287 -124.022166 315 5882ft 105kts
14-Jul-18 13:15 43.329276 -124.050817 315 5881ft 107kts
14-Jul-18 13:16 43.350389 -124.079706 315 5881ft 107kts
14-Jul-18 13:17 43.371108 -124.109328 312 5881ft 107kts
14-Jul-18 13:18 43.391679 -124.138889 315 5897ft 107kts
14-Jul-18 13:19 43.413647 -124.137658 85 5911ft 116kts
14-Jul-18 13:20 43.411144 -124.097145 81 5450ft 102kts
14-Jul-18 13:21 43.410526 -124.058190 105 4708ft 108kts
14-Jul-18 13:22 43.391740 -124.026901 70 3966ft 101kts
14-Jul-18 13:23 43.403849 -124.035566 290 3854ft 77kts
14-Jul-18 13:24 43.410917 -124.063505 277 3297ft 83kts
14-Jul-18 13:25 43.410367 -124.095194 280 2768ft 83kts
14-Jul-18 13:26 43.410408 -124.126733 276 2410ft 81kts
14-Jul-18 13:27 43.412272 -124.157202 288 2282ft 78kts
14-Jul-18 13:28 43.413260 -124.187997 283 2051ft 81kts
14-Jul-18 13:29 43.415554 -124.218168 295 1432ft 76kts
14-Jul-18 13:30 43.425611 -124.227282 90 1063ft 93kts
14-Jul-18 13:31 43.401970 -124.206853 203 1096ft 112kts
14-Jul-18 13:32 43.397064 -124.227919 335 531ft 53kts
14-Jul-18 13:33 43.408600 -124.237282 337 64ft 44kts
14-Jul-18 13:34 43.413256 -124.240953 331 21ft 11kts
14-Jul-18 13:35 43.415073 -124.244489 215 21ft 0kts

Navigation Log

Ident Type
Flight plan parsing failed, navigation log unavailable